Create Custom Reports and Graphics: Custom Report

Robertsbridge Vineyards

Current Conditions

10/6/22 11:15 AM (-07:00)
Updated Every 15 Minutes
Temp 77.1 °F   0.9
RH 45 %   4
Dew Pt 54.2 °F   3.5
Wet Bulb 62.4 °F   2.2
Daily Min Temp 47.2 °F   1.3
Daily Max Temp 77.9 °F   0.4
Yest MinT 45.9 °F
Yest MaxT 88.6 °F
BatVolt 13.6 V   0.0

Last 30 Days

Robertsbridge Vineyards

Daily Data | America/Los_Angeles
as of 10/6/22 11:16 AM PDT
Date Daily Max Temp (°F) Time of Max Temp Daily Min Temp (°F) Time of Min Temp Dew Pt (°F) Max RH (%) Min RH (%) Hrs <= 32F (hrs) Hrs <= 28F (hrs) Hrs 70-85F (hrs) Hrs > 95F (hrs) Powdery Mildew Stress (pts) GDDs (DL) GDDs (Mx/Mn) Chilling <=45F (hrs) MinBV Day (V)
10/5/22 88.6 1506 45.9 0705 48.0 92 21 0.0 0.0 3.50 0.00 60 15.3 17.2 0.0 12.6
10/4/22 87.7 1422 46.0 0638 48.8 96 25 0.0 0.0 3.68 0.00 70 14.0 16.8 0.0 12.6
10/3/22 84.8 1438 43.3 0657 48.1 93 29 0.0 0.0 7.90 0.00 80 12.6 14.1 3.1 12.6
10/2/22 82.4 1452 45.5 0721 47.1 97 17 0.0 0.0 8.07 0.00 60 12.0 13.9 0.0 12.6
10/1/22 88.0 1431 46.5 0624 46.0 91 17 0.0 0.0 3.72 0.00 40 14.3 17.3 0.0 12.6
9/30/22 88.6 1621 46.5 0634 44.6 91 13 0.0 0.0 4.11 0.00 50 15.1 17.5 0.0 12.6
9/29/22 84.2 1512 46.0 0625 48.5 100 12 0.0 0.0 7.61 0.00 60 13.1 15.1 0.0 12.6
9/28/22 80.9 1453 41.9 0727 47.0 96 23 0.0 0.0 8.69 0.00 40 12.5 11.4 3.8 12.6
9/27/22 85.9 1435 43.4 0534 46.5 96 22 0.0 0.0 8.01 0.00 20 13.2 14.7 2.0 12.6
9/26/22 90.9 1505 49.6 0059 49.0 91 23 0.0 0.0 3.16 0.00 0 16.7 20.2 0.0 12.6
9/25/22 91.0 1410 44.9 0716 45.8 94 14 0.0 0.0 3.09 0.00 0 17.0 18.0 0.1 12.6
9/24/22 90.4 1721 46.8 0645 45.1 93 10 0.0 0.0 2.81 0.00 0 16.0 18.6 0.0 12.6
9/23/22 88.6 1700 47.3 0648 48.4 98 16 0.0 0.0 4.01 0.00 10 15.1 18.0 0.0 12.6
9/22/22 79.5 1546 44.0 0710 48.3 98 27 0.0 0.0 6.49 0.00 20 10.5 11.8 1.5 12.6
9/21/22 71.2 1457 47.4 0047 50.3 97 37 0.0 0.0 0.32 0.00 0 8.9 9.3 0.0 12.6
9/20/22 68.1 1252 47.0 0648 50.7 100 45 0.0 0.0 0.00 0.00 10 6.8 7.5 0.0 12.6
9/19/22 68.4 1615 50.1 0653 52.6 98 53 0.0 0.0 0.00 0.00 20 7.4 9.3 0.0 12.6
9/18/22 59.2 1401 51.1 0245 52.4 96 79 0.0 0.0 0.00 0.00 30 5.0 5.2 0.0 12.6
9/17/22 74.3 1349 42.4 0658 44.4 94 28 0.0 0.0 2.82 0.00 40 9.2 8.4 3.5 12.6
9/16/22 83.0 1450 44.3 0600 46.1 96 26 0.0 0.0 8.29 0.00 50 12.7 13.7 0.4 12.6
9/15/22 79.0 1531 40.4 0636 44.5 95 25 0.0 0.0 6.80 0.00 30 10.7 9.8 6.6 12.6
9/14/22 76.0 1501 41.7 0424 43.3 94 30 0.0 0.0 5.77 0.00 10 9.4 8.8 6.5 12.6
9/13/22 80.2 1531 45.2 0628 45.3 93 30 0.0 0.0 6.95 0.00 20 11.3 12.7 0.0 12.6
9/12/22 91.3 1610 51.3 0101 42.9 72 16 0.0 0.0 3.73 0.00 0 21.8 21.3 0.0 12.7
9/11/22 88.1 1509 60.3 0358 36.2 52 7 0.0 0.0 5.72 0.00 0 22.2 24.2 0.0 12.6
9/10/22 91.8 1320 58.1 0653 41.5 52 14 0.0 0.0 3.97 0.00 0 22.6 24.9 0.0 12.6
9/9/22 105.0 1434 56.2 0703 42.9 62 10 0.0 0.0 2.14 7.19 0 28.6 30.6 0.0 12.6
9/8/22 106.9 1607 59.0 0655 42.8 57 9 0.0 0.0 2.06 8.10 0 31.1 32.9 0.0 12.6
9/7/22 105.5 1626 65.3 0040 44.2 55 11 0.0 0.0 5.47 8.31 0 32.6 35.4 0.0 12.6
9/6/22 114.0 1509 62.4 0611 43.0 55 5 0.0 0.0 5.04 8.75 0 35.0 38.2 0.0 12.6
Max 114.0 - 65.3 - 52.6 100 79 0.0 0.0 8.69 8.75 - 35.0 38.2 6.6 12.7
Avg - - - - 46.1 - - 0.0 0.0 4.46 1.08 - 15.7 17.2 0.9 -
Min 59.2 - 40.4 - 36.2 52 5 0.0 0.0 0.00 0.00 - 5.0 5.2 0.0 12.6
Total - - - - - - - 0.0 0.0 133.92 32.35 - 472.5 516.6 27.5 -